sensor_id;sensor_type;location;lat;lon;timestamp;P1;durP1;ratioP1;P2;durP2;ratioP2
20743;SDS011;56303;52.160;-0.428;2023-10-31T00:02:10;9.13;;;3.97;;
20743;SDS011;56303;52.160;-0.428;2023-10-31T00:04:37;5.97;;;3.13;;
20743;SDS011;56303;52.160;-0.428;2023-10-31T00:07:04;7.77;;;3.50;;
20743;SDS011;56303;52.160;-0.428;2023-10-31T00:09:31;6.60;;;3.33;;
20743;SDS011;56303;52.160;-0.428;2023-10-31T00:11:58;5.50;;;3.30;;
20743;SDS011;56303;52.160;-0.428;2023-10-31T00:14:25;6.27;;;3.70;;
20743;SDS011;56303;52.160;-0.428;2023-10-31T00:16:59;8.07;;;3.50;;
20743;SDS011;56303;52.160;-0.428;2023-10-31T00:19:26;6.37;;;3.40;;
20743;SDS011;56303;52.160;-0.428;2023-10-31T00:21:53;9.03;;;3.73;;
20743;SDS011;56303;52.160;-0.428;2023-10-31T00:24:20;6.13;;;3.53;;
20743;SDS011;56303;52.160;-0.428;2023-10-31T00:26:47;5.00;;;3.43;;
20743;SDS011;56303;52.160;-0.428;2023-10-31T00:29:14;11.00;;;4.83;;
20743;SDS011;56303;52.160;-0.428;2023-10-31T00:31:41;6.50;;;4.63;;
20743;SDS011;56303;52.160;-0.428;2023-10-31T00:34:09;10.17;;;4.60;;
20743;SDS011;56303;52.160;-0.428;2023-10-31T00:36:36;7.53;;;4.40;;
20743;SDS011;56303;52.160;-0.428;2023-10-31T00:39:03;6.67;;;4.07;;
20743;SDS011;56303;52.160;-0.428;2023-10-31T00:41:31;7.57;;;4.50;;
20743;SDS011;56303;52.160;-0.428;2023-10-31T00:43:58;8.03;;;4.80;;
20743;SDS011;56303;52.160;-0.428;2023-10-31T00:46:25;6.50;;;4.07;;
20743;SDS011;56303;52.160;-0.428;2023-10-31T00:48:52;7.03;;;3.70;;
20743;SDS011;56303;52.160;-0.428;2023-10-31T00:51:19;5.43;;;3.53;;
20743;SDS011;56303;52.160;-0.428;2023-10-31T00:53:46;5.47;;;3.50;;
20743;SDS011;56303;52.160;-0.428;2023-10-31T00:56:12;5.03;;;3.17;;
20743;SDS011;56303;52.160;-0.428;2023-10-31T00:58:39;4.80;;;3.20;;
20743;SDS011;56303;52.160;-0.428;2023-10-31T01:01:06;4.70;;;3.33;;
20743;SDS011;56303;52.160;-0.428;2023-10-31T01:03:33;6.43;;;3.27;;
20743;SDS011;56303;52.160;-0.428;2023-10-31T01:06:00;7.50;;;3.70;;
20743;SDS011;56303;52.160;-0.428;2023-10-31T01:08:27;9.03;;;4.23;;
20743;SDS011;56303;52.160;-0.428;2023-10-31T01:10:54;9.43;;;4.10;;
20743;SDS011;56303;52.160;-0.428;2023-10-31T01:13:21;8.67;;;5.00;;
20743;SDS011;56303;52.160;-0.428;2023-10-31T01:15:48;9.13;;;4.57;;
20743;SDS011;56303;52.160;-0.428;2023-10-31T01:18:15;6.50;;;4.43;;
20743;SDS011;56303;52.160;-0.428;2023-10-31T01:20:42;6.77;;;3.80;;
20743;SDS011;56303;52.160;-0.428;2023-10-31T01:23:09;9.60;;;4.23;;
20743;SDS011;56303;52.160;-0.428;2023-10-31T01:25:36;8.60;;;4.00;;
20743;SDS011;56303;52.160;-0.428;2023-10-31T01:28:03;8.27;;;5.03;;
20743;SDS011;56303;52.160;-0.428;2023-10-31T01:30:30;29.10;;;8.87;;
20743;SDS011;56303;52.160;-0.428;2023-10-31T01:32:58;17.87;;;8.57;;
20743;SDS011;56303;52.160;-0.428;2023-10-31T01:35:25;8.47;;;4.10;;
20743;SDS011;56303;52.160;-0.428;2023-10-31T01:37:52;9.17;;;4.10;;
20743;SDS011;56303;52.160;-0.428;2023-10-31T01:40:19;9.23;;;5.00;;
20743;SDS011;56303;52.160;-0.428;2023-10-31T01:42:45;14.17;;;6.43;;
20743;SDS011;56303;52.160;-0.428;2023-10-31T01:45:13;16.33;;;7.30;;
20743;SDS011;56303;52.160;-0.428;2023-10-31T01:47:39;17.83;;;7.43;;
20743;SDS011;56303;52.160;-0.428;2023-10-31T01:50:07;15.07;;;7.47;;
20743;SDS011;56303;52.160;-0.428;2023-10-31T01:52:37;12.90;;;6.67;;
20743;SDS011;56303;52.160;-0.428;2023-10-31T01:55:04;15.30;;;7.40;;
20743;SDS011;56303;52.160;-0.428;2023-10-31T01:57:31;19.10;;;7.27;;
20743;SDS011;56303;52.160;-0.428;2023-10-31T01:59:59;13.03;;;7.23;;
20743;SDS011;56303;52.160;-0.428;2023-10-31T02:02:25;10.10;;;6.33;;
20743;SDS011;56303;52.160;-0.428;2023-10-31T02:04:55;11.77;;;6.73;;
20743;SDS011;56303;52.160;-0.428;2023-10-31T02:07:22;23.77;;;8.53;;
20743;SDS011;56303;52.160;-0.428;2023-10-31T02:09:49;61.53;;;12.87;;
20743;SDS011;56303;52.160;-0.428;2023-10-31T02:12:30;17.50;;;9.70;;
20743;SDS011;56303;52.160;-0.428;2023-10-31T02:15:02;13.10;;;7.17;;
20743;SDS011;56303;52.160;-0.428;2023-10-31T02:17:29;10.23;;;6.23;;
20743;SDS011;56303;52.160;-0.428;2023-10-31T02:19:56;15.40;;;7.37;;
20743;SDS011;56303;52.160;-0.428;2023-10-31T02:22:23;16.43;;;7.83;;
20743;SDS011;56303;52.160;-0.428;2023-10-31T02:24:50;10.67;;;7.50;;
20743;SDS011;56303;52.160;-0.428;2023-10-31T02:27:17;15.97;;;7.23;;
20743;SDS011;56303;52.160;-0.428;2023-10-31T02:29:44;16.47;;;7.57;;
20743;SDS011;56303;52.160;-0.428;2023-10-31T02:32:11;16.27;;;8.93;;
20743;SDS011;56303;52.160;-0.428;2023-10-31T02:34:38;23.47;;;9.57;;
20743;SDS011;56303;52.160;-0.428;2023-10-31T02:37:05;18.30;;;8.50;;
20743;SDS011;56303;52.160;-0.428;2023-10-31T02:39:32;23.70;;;9.63;;
20743;SDS011;56303;52.160;-0.428;2023-10-31T02:41:59;21.50;;;8.70;;
20743;SDS011;56303;52.160;-0.428;2023-10-31T02:44:26;75.80;;;13.90;;
20743;SDS011;56303;52.160;-0.428;2023-10-31T02:46:53;30.50;;;9.30;;
20743;SDS011;56303;52.160;-0.428;2023-10-31T02:49:20;9.70;;;6.33;;
20743;SDS011;56303;52.160;-0.428;2023-10-31T02:51:47;60.33;;;14.50;;
20743;SDS011;56303;52.160;-0.428;2023-10-31T02:54:14;21.63;;;7.53;;
20743;SDS011;56303;52.160;-0.428;2023-10-31T02:56:41;20.97;;;6.97;;
20743;SDS011;56303;52.160;-0.428;2023-10-31T02:59:08;28.63;;;8.97;;
20743;SDS011;56303;52.160;-0.428;2023-10-31T03:01:35;19.00;;;7.03;;
20743;SDS011;56303;52.160;-0.428;2023-10-31T03:04:02;47.73;;;12.63;;
20743;SDS011;56303;52.160;-0.428;2023-10-31T03:06:30;22.37;;;12.53;;
20743;SDS011;56303;52.160;-0.428;2023-10-31T03:08:56;12.83;;;8.97;;
20743;SDS011;56303;52.160;-0.428;2023-10-31T03:11:24;20.53;;;8.43;;
20743;SDS011;56303;52.160;-0.428;2023-10-31T03:13:51;14.93;;;8.50;;
20743;SDS011;56303;52.160;-0.428;2023-10-31T03:16:20;22.37;;;7.43;;
20743;SDS011;56303;52.160;-0.428;2023-10-31T03:18:48;15.57;;;8.30;;
20743;SDS011;56303;52.160;-0.428;2023-10-31T03:21:15;20.63;;;8.30;;
20743;SDS011;56303;52.160;-0.428;2023-10-31T03:23:47;18.70;;;6.80;;
20743;SDS011;56303;52.160;-0.428;2023-10-31T03:26:15;15.60;;;7.40;;
20743;SDS011;56303;52.160;-0.428;2023-10-31T03:28:43;26.57;;;11.63;;
20743;SDS011;56303;52.160;-0.428;2023-10-31T03:31:11;10.40;;;7.27;;
20743;SDS011;56303;52.160;-0.428;2023-10-31T03:33:39;10.27;;;6.67;;
20743;SDS011;56303;52.160;-0.428;2023-10-31T03:36:06;13.10;;;7.80;;
20743;SDS011;56303;52.160;-0.428;2023-10-31T03:38:35;10.57;;;7.53;;
20743;SDS011;56303;52.160;-0.428;2023-10-31T03:41:02;9.13;;;7.13;;
20743;SDS011;56303;52.160;-0.428;2023-10-31T03:43:30;9.13;;;6.37;;
20743;SDS011;56303;52.160;-0.428;2023-10-31T03:45:57;11.00;;;6.20;;
20743;SDS011;56303;52.160;-0.428;2023-10-31T03:48:24;10.63;;;6.27;;
20743;SDS011;56303;52.160;-0.428;2023-10-31T03:50:52;9.13;;;5.97;;
20743;SDS011;56303;52.160;-0.428;2023-10-31T03:53:19;8.47;;;6.23;;
20743;SDS011;56303;52.160;-0.428;2023-10-31T03:55:46;9.83;;;5.97;;
20743;SDS011;56303;52.160;-0.428;2023-10-31T03:58:13;8.50;;;6.30;;
20743;SDS011;56303;52.160;-0.428;2023-10-31T04:00:40;9.83;;;6.10;;
20743;SDS011;56303;52.160;-0.428;2023-10-31T04:03:10;8.17;;;5.90;;
20743;SDS011;56303;52.160;-0.428;2023-10-31T04:05:37;7.40;;;5.70;;
20743;SDS011;56303;52.160;-0.428;2023-10-31T04:08:04;9.03;;;6.07;;
20743;SDS011;56303;52.160;-0.428;2023-10-31T04:10:31;8.47;;;5.80;;
20743;SDS011;56303;52.160;-0.428;2023-10-31T04:12:57;11.93;;;6.07;;
20743;SDS011;56303;52.160;-0.428;2023-10-31T04:15:24;7.10;;;5.93;;
20743;SDS011;56303;52.160;-0.428;2023-10-31T04:17:51;7.60;;;5.73;;
20743;SDS011;56303;52.160;-0.428;2023-10-31T04:20:18;8.40;;;4.80;;
20743;SDS011;56303;52.160;-0.428;2023-10-31T04:22:45;10.87;;;6.60;;
20743;SDS011;56303;52.160;-0.428;2023-10-31T04:25:12;10.27;;;7.17;;
20743;SDS011;56303;52.160;-0.428;2023-10-31T04:27:39;8.37;;;5.97;;
20743;SDS011;56303;52.160;-0.428;2023-10-31T04:30:06;7.57;;;5.83;;
20743;SDS011;56303;52.160;-0.428;2023-10-31T04:32:35;8.40;;;5.27;;
20743;SDS011;56303;52.160;-0.428;2023-10-31T04:35:02;7.73;;;5.70;;
20743;SDS011;56303;52.160;-0.428;2023-10-31T04:37:29;7.37;;;5.43;;
20743;SDS011;56303;52.160;-0.428;2023-10-31T04:40:00;10.13;;;6.37;;
20743;SDS011;56303;52.160;-0.428;2023-10-31T04:42:27;7.30;;;4.77;;
20743;SDS011;56303;52.160;-0.428;2023-10-31T04:44:54;9.00;;;5.80;;
20743;SDS011;56303;52.160;-0.428;2023-10-31T04:47:20;8.27;;;5.17;;
20743;SDS011;56303;52.160;-0.428;2023-10-31T04:49:47;6.73;;;5.20;;
20743;SDS011;56303;52.160;-0.428;2023-10-31T04:52:15;7.97;;;5.23;;
20743;SDS011;56303;52.160;-0.428;2023-10-31T04:54:43;8.87;;;5.47;;
20743;SDS011;56303;52.160;-0.428;2023-10-31T04:57:10;7.47;;;5.07;;
20743;SDS011;56303;52.160;-0.428;2023-10-31T04:59:37;11.67;;;7.17;;
20743;SDS011;56303;52.160;-0.428;2023-10-31T05:02:04;9.13;;;6.37;;
20743;SDS011;56303;52.160;-0.428;2023-10-31T05:04:31;6.60;;;5.40;;
20743;SDS011;56303;52.160;-0.428;2023-10-31T05:06:58;9.47;;;6.17;;
20743;SDS011;56303;52.160;-0.428;2023-10-31T05:09:25;9.90;;;5.63;;
20743;SDS011;56303;52.160;-0.428;2023-10-31T05:11:53;7.23;;;5.13;;
20743;SDS011;56303;52.160;-0.428;2023-10-31T05:14:20;7.90;;;5.40;;
20743;SDS011;56303;52.160;-0.428;2023-10-31T05:16:47;9.20;;;5.73;;
20743;SDS011;56303;52.160;-0.428;2023-10-31T05:19:14;10.10;;;6.50;;
20743;SDS011;56303;52.160;-0.428;2023-10-31T05:21:41;13.10;;;6.80;;
20743;SDS011;56303;52.160;-0.428;2023-10-31T05:24:08;8.90;;;6.30;;
20743;SDS011;56303;52.160;-0.428;2023-10-31T05:26:35;10.37;;;6.47;;
20743;SDS011;56303;52.160;-0.428;2023-10-31T05:29:02;9.63;;;6.07;;
20743;SDS011;56303;52.160;-0.428;2023-10-31T05:31:29;8.23;;;6.10;;
20743;SDS011;56303;52.160;-0.428;2023-10-31T05:33:56;8.80;;;5.93;;
20743;SDS011;56303;52.160;-0.428;2023-10-31T05:36:23;8.87;;;6.17;;
20743;SDS011;56303;52.160;-0.428;2023-10-31T05:38:51;7.87;;;6.23;;
20743;SDS011;56303;52.160;-0.428;2023-10-31T05:41:18;7.60;;;5.77;;
20743;SDS011;56303;52.160;-0.428;2023-10-31T05:43:45;7.83;;;5.40;;
20743;SDS011;56303;52.160;-0.428;2023-10-31T05:46:12;8.37;;;6.23;;
20743;SDS011;56303;52.160;-0.428;2023-10-31T05:48:41;12.87;;;7.53;;
20743;SDS011;56303;52.160;-0.428;2023-10-31T05:51:15;9.27;;;6.90;;
20743;SDS011;56303;52.160;-0.428;2023-10-31T05:53:44;8.63;;;6.67;;
20743;SDS011;56303;52.160;-0.428;2023-10-31T05:56:13;10.83;;;6.87;;
20743;SDS011;56303;52.160;-0.428;2023-10-31T05:58:41;8.67;;;5.93;;
20743;SDS011;56303;52.160;-0.428;2023-10-31T06:01:08;10.63;;;6.53;;
20743;SDS011;56303;52.160;-0.428;2023-10-31T06:03:36;9.97;;;5.77;;
20743;SDS011;56303;52.160;-0.428;2023-10-31T06:06:03;10.43;;;7.27;;
20743;SDS011;56303;52.160;-0.428;2023-10-31T06:08:31;9.20;;;6.77;;
20743;SDS011;56303;52.160;-0.428;2023-10-31T06:10:58;14.03;;;7.27;;
20743;SDS011;56303;52.160;-0.428;2023-10-31T06:13:26;8.80;;;6.77;;
20743;SDS011;56303;52.160;-0.428;2023-10-31T06:15:56;13.97;;;9.27;;
20743;SDS011;56303;52.160;-0.428;2023-10-31T06:18:27;15.30;;;8.77;;
20743;SDS011;56303;52.160;-0.428;2023-10-31T06:20:54;15.13;;;10.33;;
20743;SDS011;56303;52.160;-0.428;2023-10-31T06:23:22;12.17;;;9.83;;
20743;SDS011;56303;52.160;-0.428;2023-10-31T06:25:49;16.00;;;11.43;;
20743;SDS011;56303;52.160;-0.428;2023-10-31T06:28:16;14.33;;;11.13;;
20743;SDS011;56303;52.160;-0.428;2023-10-31T06:30:43;15.37;;;10.53;;
20743;SDS011;56303;52.160;-0.428;2023-10-31T06:33:10;16.60;;;13.03;;
20743;SDS011;56303;52.160;-0.428;2023-10-31T06:35:38;23.53;;;14.87;;
20743;SDS011;56303;52.160;-0.428;2023-10-31T06:38:05;20.00;;;14.50;;
20743;SDS011;56303;52.160;-0.428;2023-10-31T06:40:32;22.57;;;15.37;;
20743;SDS011;56303;52.160;-0.428;2023-10-31T06:42:59;25.33;;;16.20;;
20743;SDS011;56303;52.160;-0.428;2023-10-31T06:45:27;24.97;;;16.40;;
20743;SDS011;56303;52.160;-0.428;2023-10-31T06:47:54;23.03;;;16.87;;
20743;SDS011;56303;52.160;-0.428;2023-10-31T06:50:21;26.80;;;17.03;;
20743;SDS011;56303;52.160;-0.428;2023-10-31T06:52:48;28.50;;;18.40;;
20743;SDS011;56303;52.160;-0.428;2023-10-31T06:55:15;24.67;;;17.80;;
20743;SDS011;56303;52.160;-0.428;2023-10-31T06:57:42;24.27;;;15.47;;
20743;SDS011;56303;52.160;-0.428;2023-10-31T07:00:12;28.73;;;18.57;;
20743;SDS011;56303;52.160;-0.428;2023-10-31T07:02:40;28.00;;;18.63;;
20743;SDS011;56303;52.160;-0.428;2023-10-31T07:05:07;29.40;;;18.57;;
20743;SDS011;56303;52.160;-0.428;2023-10-31T07:07:34;27.20;;;18.77;;
20743;SDS011;56303;52.160;-0.428;2023-10-31T07:10:01;25.17;;;16.33;;
20743;SDS011;56303;52.160;-0.428;2023-10-31T07:12:28;28.47;;;17.33;;
20743;SDS011;56303;52.160;-0.428;2023-10-31T07:14:55;24.43;;;16.20;;
20743;SDS011;56303;52.160;-0.428;2023-10-31T07:17:21;21.90;;;15.43;;
20743;SDS011;56303;52.160;-0.428;2023-10-31T07:19:48;26.03;;;17.13;;
20743;SDS011;56303;52.160;-0.428;2023-10-31T07:22:15;25.67;;;16.77;;
20743;SDS011;56303;52.160;-0.428;2023-10-31T07:24:42;33.97;;;18.80;;
20743;SDS011;56303;52.160;-0.428;2023-10-31T07:27:09;26.60;;;15.27;;
20743;SDS011;56303;52.160;-0.428;2023-10-31T07:29:39;29.03;;;17.67;;
20743;SDS011;56303;52.160;-0.428;2023-10-31T07:32:07;21.40;;;15.57;;
20743;SDS011;56303;52.160;-0.428;2023-10-31T07:34:39;23.60;;;15.83;;
20743;SDS011;56303;52.160;-0.428;2023-10-31T07:37:07;30.60;;;19.60;;
20743;SDS011;56303;52.160;-0.428;2023-10-31T07:39:34;24.07;;;14.83;;
20743;SDS011;56303;52.160;-0.428;2023-10-31T07:42:01;27.10;;;18.47;;
20743;SDS011;56303;52.160;-0.428;2023-10-31T07:44:28;23.87;;;14.07;;
20743;SDS011;56303;52.160;-0.428;2023-10-31T07:46:54;27.37;;;17.60;;
20743;SDS011;56303;52.160;-0.428;2023-10-31T07:49:21;25.53;;;17.47;;
20743;SDS011;56303;52.160;-0.428;2023-10-31T07:51:48;18.80;;;14.00;;
20743;SDS011;56303;52.160;-0.428;2023-10-31T07:54:15;23.57;;;15.83;;
20743;SDS011;56303;52.160;-0.428;2023-10-31T07:56:42;17.43;;;13.20;;
20743;SDS011;56303;52.160;-0.428;2023-10-31T07:59:09;23.73;;;15.33;;
20743;SDS011;56303;52.160;-0.428;2023-10-31T08:01:37;22.53;;;15.07;;
20743;SDS011;56303;52.160;-0.428;2023-10-31T08:04:05;19.40;;;14.23;;
20743;SDS011;56303;52.160;-0.428;2023-10-31T08:06:32;21.40;;;15.90;;
20743;SDS011;56303;52.160;-0.428;2023-10-31T08:08:59;28.13;;;16.53;;
20743;SDS011;56303;52.160;-0.428;2023-10-31T08:11:26;14.27;;;11.83;;
20743;SDS011;56303;52.160;-0.428;2023-10-31T08:13:53;25.43;;;16.70;;
20743;SDS011;56303;52.160;-0.428;2023-10-31T08:16:20;20.93;;;14.53;;
20743;SDS011;56303;52.160;-0.428;2023-10-31T08:18:48;21.63;;;15.13;;
20743;SDS011;56303;52.160;-0.428;2023-10-31T08:21:15;21.07;;;14.00;;
20743;SDS011;56303;52.160;-0.428;2023-10-31T08:23:41;20.13;;;14.33;;
20743;SDS011;56303;52.160;-0.428;2023-10-31T08:26:10;19.97;;;13.20;;
20743;SDS011;56303;52.160;-0.428;2023-10-31T08:28:39;23.10;;;17.00;;
20743;SDS011;56303;52.160;-0.428;2023-10-31T08:31:06;24.37;;;16.40;;
20743;SDS011;56303;52.160;-0.428;2023-10-31T08:33:34;22.27;;;16.33;;
20743;SDS011;56303;52.160;-0.428;2023-10-31T08:36:00;17.07;;;12.70;;
20743;SDS011;56303;52.160;-0.428;2023-10-31T08:38:27;18.23;;;13.50;;
20743;SDS011;56303;52.160;-0.428;2023-10-31T08:40:58;29.07;;;18.07;;
20743;SDS011;56303;52.160;-0.428;2023-10-31T08:43:25;25.17;;;17.37;;
20743;SDS011;56303;52.160;-0.428;2023-10-31T08:45:53;27.10;;;16.27;;
20743;SDS011;56303;52.160;-0.428;2023-10-31T08:48:20;29.10;;;18.73;;
20743;SDS011;56303;52.160;-0.428;2023-10-31T08:50:47;30.93;;;19.17;;
20743;SDS011;56303;52.160;-0.428;2023-10-31T08:53:15;20.97;;;15.93;;
20743;SDS011;56303;52.160;-0.428;2023-10-31T08:55:42;24.03;;;18.17;;
20743;SDS011;56303;52.160;-0.428;2023-10-31T08:58:12;26.13;;;16.70;;
20743;SDS011;56303;52.160;-0.428;2023-10-31T09:00:39;23.57;;;15.87;;
20743;SDS011;56303;52.160;-0.428;2023-10-31T09:03:07;22.93;;;16.20;;
20743;SDS011;56303;52.160;-0.428;2023-10-31T09:05:34;22.10;;;15.20;;
20743;SDS011;56303;52.160;-0.428;2023-10-31T09:08:01;20.63;;;14.17;;
20743;SDS011;56303;52.160;-0.428;2023-10-31T09:10:28;19.97;;;14.30;;
20743;SDS011;56303;52.160;-0.428;2023-10-31T09:12:55;17.07;;;13.20;;
20743;SDS011;56303;52.160;-0.428;2023-10-31T09:15:22;22.77;;;14.10;;
20743;SDS011;56303;52.160;-0.428;2023-10-31T09:17:49;16.63;;;13.00;;
20743;SDS011;56303;52.160;-0.428;2023-10-31T09:20:16;19.53;;;14.20;;
20743;SDS011;56303;52.160;-0.428;2023-10-31T09:22:43;17.63;;;13.53;;
20743;SDS011;56303;52.160;-0.428;2023-10-31T09:25:10;20.73;;;13.67;;
20743;SDS011;56303;52.160;-0.428;2023-10-31T09:27:38;19.77;;;12.47;;
20743;SDS011;56303;52.160;-0.428;2023-10-31T09:30:06;16.97;;;12.47;;
20743;SDS011;56303;52.160;-0.428;2023-10-31T09:32:33;16.50;;;12.90;;
20743;SDS011;56303;52.160;-0.428;2023-10-31T09:35:01;16.23;;;12.70;;
20743;SDS011;56303;52.160;-0.428;2023-10-31T09:37:28;16.77;;;13.17;;
20743;SDS011;56303;52.160;-0.428;2023-10-31T09:39:55;14.00;;;10.77;;
20743;SDS011;56303;52.160;-0.428;2023-10-31T09:42:22;15.03;;;12.17;;
20743;SDS011;56303;52.160;-0.428;2023-10-31T09:44:49;14.33;;;11.77;;
20743;SDS011;56303;52.160;-0.428;2023-10-31T09:47:17;19.83;;;12.83;;
20743;SDS011;56303;52.160;-0.428;2023-10-31T09:49:44;15.47;;;12.03;;
20743;SDS011;56303;52.160;-0.428;2023-10-31T09:52:11;13.27;;;11.67;;
20743;SDS011;56303;52.160;-0.428;2023-10-31T09:54:41;14.47;;;12.97;;
20743;SDS011;56303;52.160;-0.428;2023-10-31T09:57:16;14.87;;;12.20;;
20743;SDS011;56303;52.160;-0.428;2023-10-31T09:59:44;15.33;;;11.70;;
20743;SDS011;56303;52.160;-0.428;2023-10-31T10:02:12;12.27;;;10.23;;
20743;SDS011;56303;52.160;-0.428;2023-10-31T10:04:39;14.00;;;9.90;;
20743;SDS011;56303;52.160;-0.428;2023-10-31T10:07:06;12.43;;;9.60;;
20743;SDS011;56303;52.160;-0.428;2023-10-31T10:09:34;13.17;;;10.40;;
20743;SDS011;56303;52.160;-0.428;2023-10-31T10:12:01;12.63;;;9.70;;
20743;SDS011;56303;52.160;-0.428;2023-10-31T10:14:28;11.13;;;8.90;;
20743;SDS011;56303;52.160;-0.428;2023-10-31T10:16:58;13.37;;;9.77;;
20743;SDS011;56303;52.160;-0.428;2023-10-31T10:19:26;10.87;;;9.13;;
20743;SDS011;56303;52.160;-0.428;2023-10-31T10:21:56;11.40;;;7.60;;
20743;SDS011;56303;52.160;-0.428;2023-10-31T10:24:24;9.33;;;6.80;;
20743;SDS011;56303;52.160;-0.428;2023-10-31T10:26:51;10.83;;;7.00;;
20743;SDS011;56303;52.160;-0.428;2023-10-31T10:29:18;9.13;;;7.13;;
20743;SDS011;56303;52.160;-0.428;2023-10-31T10:31:46;10.17;;;6.80;;
20743;SDS011;56303;52.160;-0.428;2023-10-31T10:34:14;11.57;;;7.77;;
20743;SDS011;56303;52.160;-0.428;2023-10-31T10:36:47;8.33;;;6.33;;
20743;SDS011;56303;52.160;-0.428;2023-10-31T10:39:19;13.07;;;7.53;;
20743;SDS011;56303;52.160;-0.428;2023-10-31T10:41:52;9.63;;;6.57;;
20743;SDS011;56303;52.160;-0.428;2023-10-31T10:44:41;8.67;;;6.63;;
20743;SDS011;56303;52.160;-0.428;2023-10-31T10:47:12;8.33;;;6.67;;
20743;SDS011;56303;52.160;-0.428;2023-10-31T10:49:41;7.57;;;6.43;;
20743;SDS011;56303;52.160;-0.428;2023-10-31T10:54:53;7.77;;;6.50;;
20743;SDS011;56303;52.160;-0.428;2023-10-31T11:00:06;9.23;;;6.53;;
20743;SDS011;56303;52.160;-0.428;2023-10-31T11:02:39;9.20;;;7.73;;
20743;SDS011;56303;52.160;-0.428;2023-10-31T11:05:10;10.30;;;7.30;;
20743;SDS011;56303;52.160;-0.428;2023-10-31T11:07:39;9.87;;;7.97;;
20743;SDS011;56303;52.160;-0.428;2023-10-31T11:10:07;9.23;;;7.07;;
20743;SDS011;56303;52.160;-0.428;2023-10-31T11:12:35;12.43;;;9.07;;
20743;SDS011;56303;52.160;-0.428;2023-10-31T11:15:03;9.63;;;7.60;;
20743;SDS011;56303;52.160;-0.428;2023-10-31T11:17:35;9.43;;;7.63;;
20743;SDS011;56303;52.160;-0.428;2023-10-31T11:20:04;8.83;;;7.00;;
20743;SDS011;56303;52.160;-0.428;2023-10-31T11:22:43;11.00;;;7.90;;
20743;SDS011;56303;52.160;-0.428;2023-10-31T11:25:14;8.30;;;7.07;;
20743;SDS011;56303;52.160;-0.428;2023-10-31T11:28:14;8.47;;;6.10;;
20743;SDS011;56303;52.160;-0.428;2023-10-31T11:30:43;8.00;;;7.10;;
20743;SDS011;56303;52.160;-0.428;2023-10-31T11:33:15;8.97;;;7.20;;
20743;SDS011;56303;52.160;-0.428;2023-10-31T11:35:49;12.13;;;7.63;;
20743;SDS011;56303;52.160;-0.428;2023-10-31T11:38:17;8.03;;;6.80;;
20743;SDS011;56303;52.160;-0.428;2023-10-31T11:40:59;9.20;;;7.33;;
20743;SDS011;56303;52.160;-0.428;2023-10-31T11:46:05;10.00;;;8.47;;
20743;SDS011;56303;52.160;-0.428;2023-10-31T11:48:48;10.17;;;7.87;;
20743;SDS011;56303;52.160;-0.428;2023-10-31T11:51:18;10.50;;;8.63;;
20743;SDS011;56303;52.160;-0.428;2023-10-31T11:53:47;10.23;;;8.33;;
20743;SDS011;56303;52.160;-0.428;2023-10-31T11:56:16;10.97;;;8.37;;
20743;SDS011;56303;52.160;-0.428;2023-10-31T11:58:43;9.77;;;8.53;;
20743;SDS011;56303;52.160;-0.428;2023-10-31T12:01:10;10.17;;;7.87;;
20743;SDS011;56303;52.160;-0.428;2023-10-31T12:03:38;9.37;;;8.30;;
20743;SDS011;56303;52.160;-0.428;2023-10-31T12:06:07;8.70;;;7.50;;
20743;SDS011;56303;52.160;-0.428;2023-10-31T12:08:38;9.07;;;8.07;;
20743;SDS011;56303;52.160;-0.428;2023-10-31T12:11:07;9.70;;;8.70;;
20743;SDS011;56303;52.160;-0.428;2023-10-31T12:13:35;10.53;;;8.70;;
20743;SDS011;56303;52.160;-0.428;2023-10-31T12:16:19;9.07;;;7.10;;
20743;SDS011;56303;52.160;-0.428;2023-10-31T12:18:53;9.27;;;7.50;;
20743;SDS011;56303;52.160;-0.428;2023-10-31T12:21:43;8.40;;;7.37;;
20743;SDS011;56303;52.160;-0.428;2023-10-31T12:24:14;10.57;;;7.97;;
20743;SDS011;56303;52.160;-0.428;2023-10-31T12:26:43;12.00;;;8.27;;
20743;SDS011;56303;52.160;-0.428;2023-10-31T12:29:12;9.53;;;7.87;;
20743;SDS011;56303;52.160;-0.428;2023-10-31T12:31:46;8.63;;;7.67;;
20743;SDS011;56303;52.160;-0.428;2023-10-31T12:34:15;10.30;;;7.33;;
20743;SDS011;56303;52.160;-0.428;2023-10-31T12:36:43;8.80;;;7.50;;
20743;SDS011;56303;52.160;-0.428;2023-10-31T12:39:12;8.80;;;7.10;;
20743;SDS011;56303;52.160;-0.428;2023-10-31T12:41:39;11.53;;;8.37;;
20743;SDS011;56303;52.160;-0.428;2023-10-31T12:44:08;10.63;;;7.37;;
20743;SDS011;56303;52.160;-0.428;2023-10-31T12:46:39;9.23;;;7.87;;
20743;SDS011;56303;52.160;-0.428;2023-10-31T12:49:11;9.03;;;7.10;;
20743;SDS011;56303;52.160;-0.428;2023-10-31T12:51:54;8.13;;;7.00;;
20743;SDS011;56303;52.160;-0.428;2023-10-31T12:54:32;10.50;;;6.70;;
20743;SDS011;56303;52.160;-0.428;2023-10-31T12:57:07;10.53;;;7.63;;
20743;SDS011;56303;52.160;-0.428;2023-10-31T12:59:36;8.90;;;8.00;;
20743;SDS011;56303;52.160;-0.428;2023-10-31T13:02:05;8.77;;;7.87;;
20743;SDS011;56303;52.160;-0.428;2023-10-31T13:04:32;8.90;;;8.00;;
20743;SDS011;56303;52.160;-0.428;2023-10-31T13:09:30;10.83;;;7.53;;
20743;SDS011;56303;52.160;-0.428;2023-10-31T13:11:58;7.47;;;6.67;;
20743;SDS011;56303;52.160;-0.428;2023-10-31T13:14:27;6.90;;;5.90;;
20743;SDS011;56303;52.160;-0.428;2023-10-31T13:16:54;9.90;;;6.70;;
20743;SDS011;56303;52.160;-0.428;2023-10-31T13:19:21;9.47;;;7.70;;
20743;SDS011;56303;52.160;-0.428;2023-10-31T13:21:49;7.33;;;5.67;;
20743;SDS011;56303;52.160;-0.428;2023-10-31T13:24:16;8.07;;;4.97;;
20743;SDS011;56303;52.160;-0.428;2023-10-31T13:26:43;7.93;;;5.23;;
20743;SDS011;56303;52.160;-0.428;2023-10-31T13:29:11;9.27;;;5.73;;
20743;SDS011;56303;52.160;-0.428;2023-10-31T13:31:38;7.27;;;5.97;;
20743;SDS011;56303;52.160;-0.428;2023-10-31T13:34:05;11.23;;;6.83;;
20743;SDS011;56303;52.160;-0.428;2023-10-31T13:36:32;7.27;;;5.43;;
20743;SDS011;56303;52.160;-0.428;2023-10-31T13:38:59;8.47;;;5.10;;
20743;SDS011;56303;52.160;-0.428;2023-10-31T13:41:26;7.57;;;4.87;;
20743;SDS011;56303;52.160;-0.428;2023-10-31T13:43:53;8.93;;;4.60;;
20743;SDS011;56303;52.160;-0.428;2023-10-31T13:46:20;7.97;;;4.10;;
20743;SDS011;56303;52.160;-0.428;2023-10-31T13:48:49;7.27;;;3.53;;
20743;SDS011;56303;52.160;-0.428;2023-10-31T13:51:16;6.20;;;3.47;;
20743;SDS011;56303;52.160;-0.428;2023-10-31T13:53:45;7.13;;;3.43;;
20743;SDS011;56303;52.160;-0.428;2023-10-31T13:56:12;5.70;;;2.90;;
20743;SDS011;56303;52.160;-0.428;2023-10-31T13:58:39;6.47;;;3.23;;
20743;SDS011;56303;52.160;-0.428;2023-10-31T14:01:06;5.83;;;3.10;;
20743;SDS011;56303;52.160;-0.428;2023-10-31T14:03:33;6.10;;;3.13;;
20743;SDS011;56303;52.160;-0.428;2023-10-31T14:06:00;6.07;;;3.10;;
20743;SDS011;56303;52.160;-0.428;2023-10-31T14:08:27;5.90;;;2.90;;
20743;SDS011;56303;52.160;-0.428;2023-10-31T14:10:54;8.20;;;3.17;;
20743;SDS011;56303;52.160;-0.428;2023-10-31T14:13:23;5.40;;;2.90;;
20743;SDS011;56303;52.160;-0.428;2023-10-31T14:15:50;4.40;;;2.60;;
20743;SDS011;56303;52.160;-0.428;2023-10-31T14:18:16;5.97;;;3.10;;
20743;SDS011;56303;52.160;-0.428;2023-10-31T14:20:43;4.47;;;2.90;;
20743;SDS011;56303;52.160;-0.428;2023-10-31T14:23:10;5.97;;;2.63;;
20743;SDS011;56303;52.160;-0.428;2023-10-31T14:25:37;5.23;;;2.90;;
20743;SDS011;56303;52.160;-0.428;2023-10-31T14:28:07;6.27;;;3.17;;
20743;SDS011;56303;52.160;-0.428;2023-10-31T14:30:33;4.63;;;2.73;;
20743;SDS011;56303;52.160;-0.428;2023-10-31T14:33:00;3.53;;;2.23;;
20743;SDS011;56303;52.160;-0.428;2023-10-31T14:35:27;8.17;;;2.50;;
20743;SDS011;56303;52.160;-0.428;2023-10-31T14:37:54;6.97;;;3.43;;
20743;SDS011;56303;52.160;-0.428;2023-10-31T14:40:22;6.67;;;3.17;;